createdAt,value
2022-10-08T00:00:14.263Z,64.57
2022-10-08T00:01:08.294Z,64.55
2022-10-08T00:01:41.831Z,64.46
2022-10-08T00:02:15.478Z,64.38
2022-10-08T00:02:48.927Z,64.61
2022-10-08T00:03:23.855Z,64.71
2022-10-08T00:03:57.712Z,64.81
2022-10-08T00:04:30.756Z,65.08
2022-10-08T00:05:03.951Z,65.20
2022-10-08T00:05:36.804Z,65.21
2022-10-08T00:06:20.571Z,65.19
2022-10-08T00:06:53.547Z,65.34
2022-10-08T00:07:26.453Z,65.39
2022-10-08T00:07:59.426Z,65.29
2022-10-08T00:08:33.982Z,65.19
2022-10-08T00:09:07.662Z,65.25
2022-10-08T00:09:40.797Z,65.44
2022-10-08T00:10:13.920Z,65.52
2022-10-08T00:10:52.242Z,65.82
2022-10-08T00:11:26.886Z,66.25
2022-10-08T00:11:59.850Z,66.46
2022-10-08T00:12:32.767Z,66.95
2022-10-08T00:13:06.253Z,67.23
2022-10-08T00:13:42.960Z,67.52
2022-10-08T00:14:15.983Z,67.71
2022-10-08T00:14:49.037Z,67.86
2022-10-08T00:15:22.145Z,67.95
2022-10-08T00:15:57.145Z,68.06
2022-10-08T00:16:32.109Z,68.09
2022-10-08T00:17:05.146Z,68.31
2022-10-08T00:17:38.087Z,68.41
2022-10-08T00:18:11.075Z,68.41
2022-10-08T00:18:45.369Z,68.53
2022-10-08T00:19:18.422Z,68.74
2022-10-08T00:19:51.330Z,68.72
2022-10-08T00:20:24.272Z,68.92
2022-10-08T00:21:04.652Z,68.98
2022-10-08T00:21:38.532Z,69.05
2022-10-08T00:22:11.530Z,68.97
2022-10-08T00:22:44.946Z,68.94
2022-10-08T00:23:18.202Z,69.01
2022-10-08T00:23:52.277Z,68.95
2022-10-08T00:24:25.275Z,68.94
2022-10-08T00:24:58.268Z,69.03
2022-10-08T00:25:31.178Z,69.13
2022-10-08T00:26:07.503Z,69.15
2022-10-08T00:26:43.845Z,69.03
2022-10-08T00:27:17.382Z,68.84
2022-10-08T00:27:50.667Z,68.79
2022-10-08T00:28:23.691Z,68.81
2022-10-08T00:28:57.791Z,68.78
2022-10-08T00:29:30.791Z,68.70
2022-10-08T00:30:04.996Z,68.52
2022-10-08T00:30:39.976Z,68.53
2022-10-08T00:31:14.642Z,68.47
2022-10-08T00:31:49.578Z,68.39
2022-10-08T00:32:22.601Z,68.53
2022-10-08T00:32:59.800Z,68.20
2022-10-08T00:33:36.350Z,67.82
2022-10-08T00:34:10.645Z,67.11
2022-10-08T00:34:43.596Z,66.36
2022-10-08T00:35:16.442Z,66.02
2022-10-08T00:35:49.310Z,65.87
2022-10-08T00:36:23.404Z,65.55
2022-10-08T00:36:57.402Z,65.02
2022-10-08T00:37:30.370Z,64.80
2022-10-08T00:38:03.294Z,64.47
2022-10-08T00:38:36.571Z,64.20
2022-10-08T00:39:13.944Z,63.82
2022-10-08T00:39:46.961Z,63.33
2022-10-08T00:40:20.270Z,62.47
2022-10-08T00:40:53.356Z,61.63
2022-10-08T00:41:30.579Z,61.12
2022-10-08T00:42:03.597Z,60.77
2022-10-08T00:42:36.447Z,60.42
2022-10-08T00:43:16.484Z,60.14
2022-10-08T00:43:51.981Z,60.41
2022-10-08T00:44:43.761Z,60.30
2022-10-08T00:45:16.690Z,60.77
2022-10-08T00:45:50.280Z,60.60
2022-10-08T00:46:31.145Z,60.58
2022-10-08T00:47:04.101Z,60.64
2022-10-08T00:47:40.296Z,60.18
2022-10-08T00:48:15.878Z,60.09
2022-10-08T00:48:50.674Z,59.81
2022-10-08T00:49:25.404Z,59.33
2022-10-08T00:50:20.060Z,58.99
2022-10-08T00:50:53.171Z,58.90
2022-10-08T00:51:26.223Z,59.51
2022-10-08T00:51:59.312Z,59.92
2022-10-08T00:52:35.283Z,60.39
2022-10-08T00:53:10.356Z,61.09
2022-10-08T00:53:44.320Z,61.83
2022-10-08T00:54:18.307Z,62.33
2022-10-08T00:54:51.995Z,62.95
2022-10-08T00:55:28.849Z,63.62
2022-10-08T00:56:03.272Z,64.22
2022-10-08T00:56:37.441Z,64.32
2022-10-08T00:57:10.636Z,64.02
2022-10-08T00:57:44.165Z,63.23
2022-10-08T00:58:20.982Z,62.50
2022-10-08T00:58:53.902Z,61.50
2022-10-08T00:59:28.747Z,60.50
2022-10-08T01:00:08.404Z,59.73
2022-10-08T01:00:41.485Z,59.07
2022-10-08T01:01:14.608Z,58.58
2022-10-08T01:01:47.798Z,58.51
2022-10-08T01:02:21.270Z,58.65
2022-10-08T01:02:54.795Z,59.04
2022-10-08T01:03:27.805Z,59.40
2022-10-08T01:04:02.948Z,59.95
2022-10-08T01:04:36.843Z,60.31
2022-10-08T01:05:10.906Z,60.95
2022-10-08T01:06:02.641Z,61.53
2022-10-08T01:06:50.065Z,61.77
2022-10-08T01:07:25.511Z,62.67
2022-10-08T01:08:02.221Z,63.65
2022-10-08T01:08:38.491Z,63.82
2022-10-08T01:09:32.361Z,63.59
2022-10-08T01:10:16.376Z,63.58
2022-10-08T01:10:57.336Z,62.80
2022-10-08T01:11:49.290Z,62.27
2022-10-08T01:12:37.184Z,62.15
2022-10-08T01:13:22.840Z,61.50
2022-10-08T01:14:01.849Z,61.06
2022-10-08T01:14:50.754Z,60.82
2022-10-08T01:15:34.133Z,61.02
2022-10-08T01:16:13.274Z,60.77
2022-10-08T01:17:04.998Z,60.49
2022-10-08T01:17:52.107Z,60.60
2022-10-08T01:18:28.222Z,60.29
2022-10-08T01:19:19.718Z,59.88
2022-10-08T01:19:58.538Z,60.32
2022-10-08T01:20:42.225Z,59.94
2022-10-08T01:21:19.631Z,59.94
2022-10-08T01:21:52.455Z,59.75
2022-10-08T01:22:31.383Z,59.57
2022-10-08T01:23:23.205Z,59.49
2022-10-08T01:23:56.100Z,59.35
2022-10-08T01:24:51.944Z,59.66
2022-10-08T01:25:34.330Z,59.90
2022-10-08T01:26:07.321Z,60.81
2022-10-08T01:26:50.005Z,61.78
2022-10-08T01:27:26.083Z,62.20
2022-10-08T01:28:03.146Z,63.08
2022-10-08T01:28:41.115Z,63.79
2022-10-08T01:29:16.462Z,64.21
2022-10-08T01:29:50.388Z,64.21
2022-10-08T01:30:24.395Z,63.99
2022-10-08T01:31:04.900Z,63.67
2022-10-08T01:31:41.355Z,63.26
2022-10-08T01:32:16.504Z,62.58
2022-10-08T01:33:13.401Z,61.98
2022-10-08T01:33:51.108Z,61.61
2022-10-08T01:34:30.311Z,61.08
2022-10-08T01:35:06.002Z,60.95
2022-10-08T01:35:44.979Z,60.75
2022-10-08T01:36:20.048Z,60.67
2022-10-08T01:36:54.475Z,60.46
2022-10-08T01:37:32.098Z,60.27
2022-10-08T01:38:07.401Z,60.30
2022-10-08T01:38:45.635Z,60.44
2022-10-08T01:39:20.135Z,60.56
2022-10-08T01:39:54.569Z,60.80
2022-10-08T01:40:31.375Z,60.83
2022-10-08T01:41:06.800Z,60.95
2022-10-08T01:41:41.270Z,60.99
2022-10-08T01:42:15.464Z,61.17
2022-10-08T01:42:49.824Z,61.09
2022-10-08T01:43:24.238Z,61.32
2022-10-08T01:44:10.026Z,61.53
2022-10-08T01:44:48.409Z,61.55
2022-10-08T01:45:25.358Z,61.61
2022-10-08T01:46:02.135Z,61.74
2022-10-08T01:46:37.790Z,61.71
2022-10-08T01:47:13.522Z,61.59
2022-10-08T01:47:47.630Z,61.43
2022-10-08T01:48:23.856Z,61.37
2022-10-08T01:48:58.339Z,61.36
2022-10-08T01:49:34.374Z,61.34
2022-10-08T01:50:28.518Z,61.37
2022-10-08T01:51:06.988Z,61.44
2022-10-08T01:51:42.275Z,61.66
2022-10-08T01:52:20.423Z,61.75
2022-10-08T01:52:55.432Z,61.86
2022-10-08T01:53:29.190Z,61.80
2022-10-08T01:54:03.701Z,61.69
2022-10-08T01:54:38.312Z,61.54
2022-10-08T01:55:15.039Z,61.50
2022-10-08T01:55:53.635Z,61.34
2022-10-08T01:56:28.065Z,61.39
2022-10-08T01:57:03.150Z,61.39
2022-10-08T01:57:37.167Z,61.22
2022-10-08T01:58:14.195Z,61.06
2022-10-08T01:59:16.692Z,60.82
2022-10-08T01:59:52.784Z,61.01
2022-10-08T02:00:25.813Z,59.86
2022-10-08T02:01:03.217Z,59.22
2022-10-08T02:01:42.751Z,58.47
2022-10-08T02:02:15.762Z,58.31
2022-10-08T02:02:49.097Z,58.52
2022-10-08T02:03:22.543Z,58.85
2022-10-08T02:04:14.377Z,59.08
2022-10-08T02:04:47.879Z,59.28
2022-10-08T02:05:21.666Z,60.42
2022-10-08T02:05:55.063Z,61.01
2022-10-08T02:06:29.846Z,61.98
2022-10-08T02:07:10.593Z,62.61
2022-10-08T02:07:43.460Z,62.95
2022-10-08T02:08:16.599Z,63.32
2022-10-08T02:08:49.784Z,63.93
2022-10-08T02:09:33.464Z,64.01
2022-10-08T02:10:06.518Z,63.84
2022-10-08T02:10:40.856Z,63.10
2022-10-08T02:11:13.900Z,62.88
2022-10-08T02:11:46.887Z,62.49
2022-10-08T02:12:20.921Z,62.09
2022-10-08T02:12:54.029Z,61.73
2022-10-08T02:13:27.097Z,61.29
2022-10-08T02:14:00.018Z,60.88
2022-10-08T02:14:34.359Z,60.71
2022-10-08T02:15:28.166Z,60.57
2022-10-08T02:16:08.574Z,60.75
2022-10-08T02:16:45.767Z,60.01
2022-10-08T02:17:18.741Z,59.35
2022-10-08T02:17:52.036Z,58.74
2022-10-08T02:18:35.422Z,58.67
2022-10-08T02:19:15.809Z,58.73
2022-10-08T02:19:53.332Z,59.06
2022-10-08T02:20:31.404Z,59.70
2022-10-08T02:21:06.254Z,59.87
2022-10-08T02:21:40.364Z,60.32
2022-10-08T02:22:16.311Z,60.77
2022-10-08T02:23:04.680Z,61.38
2022-10-08T02:23:43.667Z,61.64
2022-10-08T02:24:23.374Z,62.62
2022-10-08T02:25:01.109Z,63.42
2022-10-08T02:25:37.389Z,63.77
2022-10-08T02:26:13.174Z,63.72
2022-10-08T02:26:48.270Z,63.33
2022-10-08T02:27:26.214Z,63.13
2022-10-08T02:27:59.378Z,63.03
2022-10-08T02:28:32.493Z,62.26
2022-10-08T02:29:11.068Z,61.60
2022-10-08T02:29:52.552Z,61.25
2022-10-08T02:30:28.956Z,60.68
2022-10-08T02:31:14.663Z,59.81
2022-10-08T02:31:47.982Z,59.40
2022-10-08T02:32:23.937Z,58.43
2022-10-08T02:33:02.926Z,58.23
2022-10-08T02:33:48.176Z,58.49
2022-10-08T02:34:26.697Z,58.95
2022-10-08T02:35:07.633Z,59.67
2022-10-08T02:35:44.519Z,60.35
2022-10-08T02:36:20.135Z,60.97
2022-10-08T02:37:13.502Z,61.48
2022-10-08T02:37:51.392Z,61.54
2022-10-08T02:38:35.629Z,62.33
2022-10-08T02:39:10.619Z,63.04
2022-10-08T02:39:47.205Z,63.26
2022-10-08T02:40:20.790Z,63.15
2022-10-08T02:40:57.209Z,62.94
2022-10-08T02:41:34.755Z,62.79
2022-10-08T02:42:11.350Z,62.11
2022-10-08T02:42:46.873Z,61.07
2022-10-08T02:43:25.744Z,60.27
2022-10-08T02:44:00.081Z,59.76
2022-10-08T02:44:42.249Z,58.99
2022-10-08T02:45:27.173Z,58.31
2022-10-08T02:46:03.558Z,58.02
2022-10-08T02:46:38.865Z,58.44
2022-10-08T02:47:15.092Z,58.98
2022-10-08T02:47:50.190Z,59.56
2022-10-08T02:48:33.675Z,60.20
2022-10-08T02:49:09.439Z,60.45
2022-10-08T02:49:44.002Z,61.41
2022-10-08T02:50:19.495Z,62.03
2022-10-08T02:50:53.325Z,62.62
2022-10-08T02:51:28.199Z,63.20
2022-10-08T02:52:02.192Z,63.68
2022-10-08T02:52:38.992Z,63.91
2022-10-08T02:53:14.713Z,63.86
2022-10-08T02:53:49.731Z,63.71
2022-10-08T02:54:23.729Z,63.39
2022-10-08T02:55:00.702Z,62.76
2022-10-08T02:55:38.709Z,62.42
2022-10-08T02:56:32.109Z,61.94
2022-10-08T02:57:12.079Z,61.16
2022-10-08T02:57:46.756Z,59.82
2022-10-08T02:58:19.869Z,59.02
2022-10-08T02:58:52.896Z,58.19
2022-10-08T02:59:26.841Z,57.83
2022-10-08T02:59:59.956Z,57.92
2022-10-08T03:00:36.483Z,58.25
2022-10-08T03:01:15.653Z,58.58
2022-10-08T03:01:50.625Z,59.19
2022-10-08T03:02:27.980Z,60.15
2022-10-08T03:03:06.717Z,60.78
2022-10-08T03:03:45.881Z,61.39
2022-10-08T03:04:27.940Z,62.02
2022-10-08T03:05:02.512Z,62.73
2022-10-08T03:05:37.204Z,63.61
2022-10-08T03:06:11.646Z,63.77
2022-10-08T03:06:45.040Z,63.55
2022-10-08T03:07:18.005Z,63.00
2022-10-08T03:07:51.867Z,62.27
2022-10-08T03:08:25.121Z,61.78
2022-10-08T03:08:59.796Z,60.82
2022-10-08T03:09:34.746Z,60.41
2022-10-08T03:10:08.447Z,59.91
2022-10-08T03:10:42.430Z,59.32
2022-10-08T03:11:15.990Z,58.59
2022-10-08T03:11:49.371Z,58.47
2022-10-08T03:12:22.511Z,58.61
2022-10-08T03:13:00.559Z,58.83
2022-10-08T03:13:38.284Z,59.33
2022-10-08T03:14:13.186Z,60.12
2022-10-08T03:14:48.194Z,60.35
2022-10-08T03:15:21.211Z,60.91
2022-10-08T03:15:54.597Z,61.46
2022-10-08T03:16:32.014Z,62.06
2022-10-08T03:17:06.470Z,62.71
2022-10-08T03:17:41.942Z,63.62
2022-10-08T03:18:14.945Z,63.91
2022-10-08T03:18:48.758Z,63.83
2022-10-08T03:19:22.080Z,63.60
2022-10-08T03:19:55.032Z,62.93
2022-10-08T03:20:28.206Z,62.31
2022-10-08T03:21:01.670Z,61.53
2022-10-08T03:21:35.567Z,60.92
2022-10-08T03:22:08.396Z,60.09
2022-10-08T03:22:41.398Z,59.45
2022-10-08T03:23:16.824Z,58.82
2022-10-08T03:23:49.718Z,58.35
2022-10-08T03:24:22.919Z,57.89
2022-10-08T03:24:56.939Z,57.99
2022-10-08T03:25:30.276Z,58.22
2022-10-08T03:26:03.337Z,58.82
2022-10-08T03:26:36.258Z,59.53
2022-10-08T03:27:09.180Z,60.04
2022-10-08T03:27:42.104Z,60.58
2022-10-08T03:28:15.210Z,61.11
2022-10-08T03:28:48.387Z,61.60
2022-10-08T03:29:21.675Z,62.16
2022-10-08T03:29:57.510Z,62.91
2022-10-08T03:30:30.615Z,63.57
2022-10-08T03:31:05.115Z,63.84
2022-10-08T03:31:38.132Z,63.51
2022-10-08T03:32:11.067Z,62.92
2022-10-08T03:32:44.271Z,62.33
2022-10-08T03:33:17.688Z,61.73
2022-10-08T03:33:51.413Z,60.87
2022-10-08T03:34:27.568Z,60.16
2022-10-08T03:35:00.456Z,59.69
2022-10-08T03:35:33.713Z,59.02
2022-10-08T03:36:06.795Z,58.46
2022-10-08T03:36:39.785Z,58.42
2022-10-08T03:37:12.783Z,58.49
2022-10-08T03:37:45.751Z,58.72
2022-10-08T03:38:18.802Z,59.26
2022-10-08T03:38:52.153Z,60.04
2022-10-08T03:39:25.103Z,60.72
2022-10-08T03:39:58.075Z,61.39
2022-10-08T03:40:31.790Z,62.20
2022-10-08T03:41:04.838Z,62.99
2022-10-08T03:41:37.777Z,63.76
2022-10-08T03:42:10.898Z,64.07
2022-10-08T03:42:44.172Z,64.14
2022-10-08T03:43:17.488Z,63.50
2022-10-08T03:43:50.839Z,62.73
2022-10-08T03:44:23.709Z,61.81
2022-10-08T03:44:56.614Z,61.19
2022-10-08T03:45:29.624Z,60.46
2022-10-08T03:46:03.101Z,59.80
2022-10-08T03:46:36.185Z,59.11
2022-10-08T03:47:09.233Z,58.57
2022-10-08T03:47:42.259Z,58.46
2022-10-08T03:48:15.199Z,58.74
2022-10-08T03:48:48.947Z,59.10
2022-10-08T03:49:21.914Z,59.82
2022-10-08T03:49:54.936Z,60.40
2022-10-08T03:50:27.913Z,61.02
2022-10-08T03:51:02.292Z,61.57
2022-10-08T03:51:35.376Z,62.00
2022-10-08T03:52:08.434Z,62.80
2022-10-08T03:52:41.440Z,63.52
2022-10-08T03:53:14.898Z,63.86
2022-10-08T03:53:47.942Z,63.70
2022-10-08T03:54:20.912Z,63.26
2022-10-08T03:54:53.777Z,62.83
2022-10-08T03:55:26.681Z,62.47
2022-10-08T03:56:07.084Z,61.89
2022-10-08T03:56:40.799Z,61.52
2022-10-08T03:57:14.152Z,60.77
2022-10-08T03:57:47.082Z,60.20
2022-10-08T03:58:20.294Z,59.75
2022-10-08T03:58:57.355Z,59.25
2022-10-08T03:59:30.591Z,58.74
2022-10-08T04:00:04.033Z,58.45
2022-10-08T04:00:37.207Z,58.58
2022-10-08T04:01:17.184Z,58.98
2022-10-08T04:01:50.363Z,59.31
2022-10-08T04:02:23.747Z,60.11
2022-10-08T04:02:56.999Z,60.78
2022-10-08T04:03:30.469Z,61.36
2022-10-08T04:04:04.040Z,61.85
2022-10-08T04:04:37.020Z,62.58
2022-10-08T04:05:10.032Z,63.15
2022-10-08T04:05:48.783Z,63.58
2022-10-08T04:06:22.232Z,63.79
2022-10-08T04:06:55.203Z,63.63
2022-10-08T04:07:28.027Z,63.14
2022-10-08T04:08:00.854Z,62.56
2022-10-08T04:08:34.199Z,61.97
2022-10-08T04:09:07.188Z,61.52
2022-10-08T04:09:40.169Z,60.76
2022-10-08T04:10:13.075Z,60.08
2022-10-08T04:10:46.021Z,59.49
2022-10-08T04:11:19.727Z,58.93
2022-10-08T04:11:52.968Z,58.40
2022-10-08T04:12:25.962Z,58.23
2022-10-08T04:12:59.152Z,58.44
2022-10-08T04:13:32.856Z,58.81
2022-10-08T04:14:05.836Z,59.16
2022-10-08T04:14:38.829Z,59.70
2022-10-08T04:15:11.741Z,60.20
2022-10-08T04:15:45.872Z,60.92
2022-10-08T04:16:19.537Z,61.63
2022-10-08T04:16:53.698Z,62.19
2022-10-08T04:17:26.575Z,62.76
2022-10-08T04:17:59.512Z,63.47
2022-10-08T04:18:33.383Z,63.85
2022-10-08T04:19:06.540Z,63.90
2022-10-08T04:19:39.602Z,63.41
2022-10-08T04:20:12.594Z,62.79
2022-10-08T04:20:45.652Z,62.23
2022-10-08T04:21:19.629Z,61.92
2022-10-08T04:21:52.984Z,61.32
2022-10-08T04:22:26.164Z,60.56
2022-10-08T04:22:59.219Z,59.84
2022-10-08T04:23:33.325Z,59.19
2022-10-08T04:24:09.484Z,58.36
2022-10-08T04:24:42.549Z,57.90
2022-10-08T04:25:15.572Z,58.23
2022-10-08T04:25:52.213Z,58.51
2022-10-08T04:26:25.521Z,58.98
2022-10-08T04:26:58.514Z,59.55
2022-10-08T04:27:32.627Z,60.23
2022-10-08T04:28:05.880Z,61.01
2022-10-08T04:28:39.785Z,61.60
2022-10-08T04:29:12.867Z,62.23
2022-10-08T04:29:45.956Z,62.82
2022-10-08T04:30:19.084Z,63.68
2022-10-08T04:30:55.769Z,63.95
2022-10-08T04:31:28.901Z,63.74
2022-10-08T04:32:01.997Z,62.70
2022-10-08T04:32:35.274Z,61.96
2022-10-08T04:33:08.265Z,61.32
2022-10-08T04:33:41.297Z,60.66
2022-10-08T04:34:14.289Z,60.05
2022-10-08T04:34:47.306Z,59.47
2022-10-08T04:35:20.181Z,58.97
2022-10-08T04:35:58.936Z,58.28
2022-10-08T04:36:33.537Z,58.02
2022-10-08T04:37:06.510Z,58.16
2022-10-08T04:37:39.614Z,58.67
2022-10-08T04:38:12.684Z,59.26
2022-10-08T04:38:45.998Z,59.79
2022-10-08T04:39:19.072Z,60.45
2022-10-08T04:39:52.116Z,61.13
2022-10-08T04:40:25.134Z,61.55
2022-10-08T04:41:05.625Z,62.09
2022-10-08T04:41:38.597Z,62.15
2022-10-08T04:42:11.560Z,62.91
2022-10-08T04:42:45.090Z,63.15
2022-10-08T04:43:18.330Z,62.95
2022-10-08T04:43:52.033Z,62.63
2022-10-08T04:44:25.087Z,61.74
2022-10-08T04:44:58.065Z,61.05
2022-10-08T04:45:31.145Z,60.39
2022-10-08T04:46:04.795Z,59.70
2022-10-08T04:46:38.018Z,59.07
2022-10-08T04:47:11.016Z,58.29
2022-10-08T04:47:43.930Z,58.05
2022-10-08T04:48:16.844Z,58.27
2022-10-08T04:48:51.112Z,58.62
2022-10-08T04:49:24.994Z,59.01
2022-10-08T04:49:57.936Z,59.78
2022-10-08T04:50:31.052Z,60.35
2022-10-08T04:51:10.057Z,61.02
2022-10-08T04:51:43.655Z,61.48
2022-10-08T04:52:19.029Z,62.30
2022-10-08T04:52:51.961Z,62.84
2022-10-08T04:53:25.950Z,63.62
2022-10-08T04:53:58.809Z,63.85
2022-10-08T04:54:31.872Z,63.63
2022-10-08T04:55:05.215Z,63.16
2022-10-08T04:55:38.142Z,62.71
2022-10-08T04:56:12.997Z,62.18
2022-10-08T04:56:46.204Z,61.61
2022-10-08T04:57:19.429Z,61.14
2022-10-08T04:57:52.497Z,60.49
2022-10-08T04:58:25.857Z,60.00
2022-10-08T04:58:59.621Z,59.34
2022-10-08T04:59:32.739Z,58.51
2022-10-08T05:00:18.313Z,58.13
2022-10-08T05:00:52.133Z,57.88
2022-10-08T05:01:25.900Z,58.43
2022-10-08T05:01:58.988Z,58.88
2022-10-08T05:02:32.027Z,59.47
2022-10-08T05:03:05.234Z,59.97
2022-10-08T05:03:39.241Z,60.59
2022-10-08T05:04:12.300Z,61.03
2022-10-08T05:04:45.752Z,61.51
2022-10-08T05:05:18.652Z,62.01
2022-10-08T05:05:51.715Z,62.52
2022-10-08T05:06:27.305Z,63.23
2022-10-08T05:07:00.320Z,63.70
2022-10-08T05:07:33.229Z,63.56
2022-10-08T05:08:06.182Z,63.25
2022-10-08T05:08:39.455Z,62.74
2022-10-08T05:09:12.621Z,62.27
2022-10-08T05:09:45.759Z,61.76
2022-10-08T05:10:18.849Z,61.04
2022-10-08T05:10:51.909Z,60.56
2022-10-08T05:11:26.030Z,59.97
2022-10-08T05:11:58.913Z,59.48
2022-10-08T05:12:31.867Z,58.86
2022-10-08T05:13:04.870Z,58.40
2022-10-08T05:13:37.841Z,58.25
2022-10-08T05:14:11.204Z,58.54
2022-10-08T05:14:44.044Z,58.85
2022-10-08T05:15:17.011Z,59.39
2022-10-08T05:15:50.253Z,59.95
2022-10-08T05:16:23.879Z,60.48
2022-10-08T05:16:56.871Z,61.11
2022-10-08T05:17:29.757Z,61.69
2022-10-08T05:18:02.614Z,62.18
2022-10-08T05:18:36.457Z,62.94
2022-10-08T05:19:09.436Z,63.55
2022-10-08T05:19:42.369Z,63.51
2022-10-08T05:20:15.331Z,63.30
2022-10-08T05:20:48.317Z,62.88
2022-10-08T05:21:22.709Z,62.36
2022-10-08T05:21:55.600Z,62.11
2022-10-08T05:22:28.586Z,61.88
2022-10-08T05:23:01.589Z,61.60
2022-10-08T05:23:34.970Z,61.42
2022-10-08T05:24:09.180Z,60.90
2022-10-08T05:24:42.268Z,60.52
2022-10-08T05:25:15.160Z,59.83
2022-10-08T05:25:48.088Z,59.45
2022-10-08T05:26:35.786Z,59.14
2022-10-08T05:27:15.507Z,58.82
2022-10-08T05:27:48.486Z,59.24
2022-10-08T05:28:21.683Z,59.59
2022-10-08T05:28:56.809Z,60.09
2022-10-08T05:29:30.657Z,60.39
2022-10-08T05:30:04.212Z,61.13
2022-10-08T05:30:37.249Z,61.66
2022-10-08T05:31:10.577Z,62.23
2022-10-08T05:31:43.709Z,62.84
2022-10-08T05:32:16.675Z,63.44
2022-10-08T05:32:49.935Z,63.60
2022-10-08T05:33:23.319Z,63.74
2022-10-08T05:33:56.793Z,63.60
2022-10-08T05:34:29.663Z,63.07
2022-10-08T05:35:02.756Z,62.84
2022-10-08T05:35:37.685Z,62.49
2022-10-08T05:36:18.240Z,62.37
2022-10-08T05:36:51.617Z,61.91
2022-10-08T05:37:25.110Z,61.35
2022-10-08T05:37:58.024Z,60.95
2022-10-08T05:38:34.819Z,60.67
2022-10-08T05:39:08.397Z,60.63
2022-10-08T05:39:41.411Z,60.43
2022-10-08T05:40:14.397Z,60.23
2022-10-08T05:40:47.477Z,60.00
2022-10-08T05:41:22.044Z,59.97
2022-10-08T05:41:55.215Z,59.91
2022-10-08T05:42:28.252Z,59.64
2022-10-08T05:43:01.393Z,59.48
2022-10-08T05:43:34.754Z,59.21
2022-10-08T05:44:08.759Z,59.21
2022-10-08T05:44:45.386Z,59.41
2022-10-08T05:45:18.683Z,59.85
2022-10-08T05:45:51.738Z,60.33
2022-10-08T05:46:25.972Z,60.86
2022-10-08T05:46:58.986Z,61.50
2022-10-08T05:47:31.999Z,62.30
2022-10-08T05:48:04.896Z,62.88
2022-10-08T05:48:38.350Z,63.56
2022-10-08T05:49:16.627Z,63.77
2022-10-08T05:49:49.488Z,63.87
2022-10-08T05:50:22.532Z,63.46
2022-10-08T05:50:55.479Z,63.07
2022-10-08T05:51:29.186Z,62.65
2022-10-08T05:52:02.462Z,62.31
2022-10-08T05:52:35.480Z,61.96
2022-10-08T05:53:09.329Z,61.92
2022-10-08T05:53:44.145Z,61.93
2022-10-08T05:54:18.056Z,61.83
2022-10-08T05:54:50.933Z,61.88
2022-10-08T05:55:23.975Z,61.88
2022-10-08T05:56:03.969Z,61.81
2022-10-08T05:56:38.019Z,61.75
2022-10-08T05:57:11.301Z,61.46
2022-10-08T05:57:44.438Z,61.20
2022-10-08T05:58:17.408Z,60.96
2022-10-08T05:58:51.179Z,60.81
2022-10-08T05:59:24.740Z,60.59
2022-10-08T05:59:57.791Z,60.57
2022-10-08T06:00:30.768Z,60.46
2022-10-08T06:01:07.963Z,60.44
2022-10-08T06:01:40.991Z,60.54
2022-10-08T06:02:14.238Z,60.56
2022-10-08T06:02:49.572Z,60.54
2022-10-08T06:03:23.004Z,60.77
2022-10-08T06:03:57.623Z,60.93
2022-10-08T06:04:30.772Z,61.11
2022-10-08T06:05:04.066Z,61.25
2022-10-08T06:05:37.161Z,61.43
2022-10-08T06:06:11.579Z,61.73
2022-10-08T06:06:45.538Z,62.15
2022-10-08T06:07:18.622Z,62.37
2022-10-08T06:07:53.242Z,62.90
2022-10-08T06:08:26.253Z,63.17
2022-10-08T06:09:01.143Z,63.34
2022-10-08T06:09:34.271Z,63.42
2022-10-08T06:10:07.425Z,63.46
2022-10-08T06:10:48.377Z,63.40
2022-10-08T06:11:21.432Z,63.50
2022-10-08T06:11:54.395Z,63.68
2022-10-08T06:12:27.450Z,63.77
2022-10-08T06:13:00.451Z,63.86
2022-10-08T06:13:33.553Z,63.93
2022-10-08T06:14:10.009Z,63.99
2022-10-08T06:14:42.945Z,64.20
2022-10-08T06:15:15.902Z,64.32
2022-10-08T06:15:58.692Z,64.43
2022-10-08T06:16:32.349Z,64.53
2022-10-08T06:17:05.490Z,64.69
2022-10-08T06:17:38.495Z,64.99
2022-10-08T06:18:11.566Z,65.24
2022-10-08T06:18:44.569Z,65.38
2022-10-08T06:19:17.659Z,65.53
2022-10-08T06:19:50.662Z,65.72
2022-10-08T06:20:25.020Z,65.98
2022-10-08T06:21:08.447Z,66.03
2022-10-08T06:21:42.107Z,66.06
2022-10-08T06:22:15.645Z,66.40
2022-10-08T06:22:50.128Z,66.63
2022-10-08T06:23:25.061Z,66.59
2022-10-08T06:24:00.472Z,66.66
2022-10-08T06:24:34.029Z,66.86
2022-10-08T06:25:08.158Z,66.98
2022-10-08T06:25:41.862Z,67.17
2022-10-08T06:26:16.612Z,67.23
2022-10-08T06:26:50.204Z,67.52
2022-10-08T06:27:23.963Z,67.67
2022-10-08T06:27:57.597Z,67.96
2022-10-08T06:28:31.639Z,68.09
2022-10-08T06:29:06.740Z,68.22
2022-10-08T06:29:40.527Z,68.31
2022-10-08T06:30:14.176Z,68.58
2022-10-08T06:30:48.016Z,68.73
2022-10-08T06:31:22.036Z,68.68
2022-10-08T06:31:55.991Z,68.67
2022-10-08T06:32:30.240Z,68.62
2022-10-08T06:33:04.109Z,68.54
2022-10-08T06:33:38.218Z,68.49
2022-10-08T06:34:12.399Z,68.30
2022-10-08T06:34:46.336Z,68.12
2022-10-08T06:35:19.997Z,68.06
2022-10-08T06:35:53.886Z,67.96
2022-10-08T06:36:28.757Z,67.84
2022-10-08T06:37:02.566Z,67.86
2022-10-08T06:37:37.352Z,67.91
2022-10-08T06:38:11.057Z,67.95
2022-10-08T06:38:49.469Z,68.02
2022-10-08T06:39:23.771Z,67.99
2022-10-08T06:39:57.591Z,68.19
2022-10-08T06:40:40.563Z,68.44
2022-10-08T06:41:14.346Z,68.68
2022-10-08T06:41:48.780Z,68.97
2022-10-08T06:42:23.042Z,69.04
2022-10-08T06:42:56.922Z,68.95
2022-10-08T06:43:30.775Z,68.59
2022-10-08T06:44:05.931Z,68.40
2022-10-08T06:44:40.034Z,68.50
2022-10-08T06:45:15.094Z,68.21
2022-10-08T06:45:49.538Z,67.57
2022-10-08T06:46:24.431Z,66.92
2022-10-08T06:46:58.356Z,66.20
2022-10-08T06:47:31.709Z,65.60
2022-10-08T06:48:04.582Z,64.91
2022-10-08T06:48:37.995Z,64.62
2022-10-08T06:49:11.308Z,64.59
2022-10-08T06:49:44.381Z,64.48
2022-10-08T06:50:17.352Z,64.65
2022-10-08T06:50:57.764Z,64.90
2022-10-08T06:51:30.897Z,65.13
2022-10-08T06:52:03.924Z,65.54
2022-10-08T06:52:36.935Z,65.87
2022-10-08T06:53:11.591Z,66.28
2022-10-08T06:53:45.233Z,66.48
2022-10-08T06:54:18.472Z,66.68
2022-10-08T06:54:51.725Z,66.88
2022-10-08T06:55:24.765Z,67.11
2022-10-08T06:55:58.514Z,67.31
2022-10-08T06:56:31.905Z,67.30
2022-10-08T06:57:05.023Z,67.37
2022-10-08T06:57:38.346Z,67.55
2022-10-08T06:58:11.472Z,67.69
2022-10-08T06:58:45.252Z,67.81
2022-10-08T06:59:18.277Z,67.92
2022-10-08T06:59:54.608Z,67.90
2022-10-08T07:00:27.751Z,68.03
2022-10-08T07:01:08.251Z,68.14
2022-10-08T07:01:41.246Z,68.11
2022-10-08T07:02:14.378Z,68.21
2022-10-08T07:02:47.834Z,68.26
2022-10-08T07:03:21.071Z,68.22
2022-10-08T07:03:55.584Z,68.27
2022-10-08T07:04:28.548Z,68.31
2022-10-08T07:05:01.520Z,68.42
2022-10-08T07:05:34.579Z,68.54
2022-10-08T07:06:09.117Z,68.67
2022-10-08T07:06:42.266Z,68.91
2022-10-08T07:07:15.375Z,69.15
2022-10-08T07:07:48.526Z,69.22
2022-10-08T07:08:21.854Z,69.30
2022-10-08T07:08:55.916Z,69.28
2022-10-08T07:09:29.496Z,69.38
2022-10-08T07:10:04.135Z,69.54
2022-10-08T07:10:37.217Z,69.60
2022-10-08T07:11:11.877Z,69.87
2022-10-08T07:11:45.001Z,69.90
2022-10-08T07:12:17.960Z,69.90
2022-10-08T07:12:51.035Z,69.96
2022-10-08T07:13:24.056Z,70.02
2022-10-08T07:13:57.191Z,70.08
2022-10-08T07:14:30.360Z,70.19
2022-10-08T07:15:04.125Z,70.36
2022-10-08T07:15:37.107Z,70.72
2022-10-08T07:16:20.803Z,70.91
2022-10-08T07:16:54.227Z,70.81
2022-10-08T07:17:29.031Z,70.96
2022-10-08T07:18:02.037Z,71.06
2022-10-08T07:18:35.736Z,71.05
2022-10-08T07:19:08.902Z,70.68
2022-10-08T07:19:41.786Z,70.16
2022-10-08T07:20:14.912Z,69.61
2022-10-08T07:20:54.714Z,69.26
2022-10-08T07:21:28.192Z,69.02
2022-10-08T07:22:01.582Z,68.80
2022-10-08T07:22:35.000Z,68.74
2022-10-08T07:23:08.034Z,68.58
2022-10-08T07:23:41.330Z,68.53
2022-10-08T07:24:14.275Z,68.46
2022-10-08T07:24:47.257Z,68.38
2022-10-08T07:25:20.318Z,68.31
2022-10-08T07:26:00.753Z,68.29
2022-10-08T07:26:35.083Z,68.13
2022-10-08T07:27:07.975Z,68.07
2022-10-08T07:27:44.814Z,68.14
2022-10-08T07:28:18.341Z,68.17
2022-10-08T07:28:52.663Z,68.21
2022-10-08T07:29:26.593Z,68.32
2022-10-08T07:29:59.738Z,68.27
2022-10-08T07:30:33.412Z,68.20
2022-10-08T07:31:07.783Z,68.14
2022-10-08T07:31:41.335Z,68.15